sensor_id;sensor_type;location;lat;lon;timestamp;P1;durP1;ratioP1;P2;durP2;ratioP2
9972;SDS011;5027;53.560;10.062;2023-08-12T00:00:40;6.13;;;3.57;;
9972;SDS011;5027;53.560;10.062;2023-08-12T00:03:07;4.83;;;3.30;;
9972;SDS011;5027;53.560;10.062;2023-08-12T00:05:35;4.50;;;3.60;;
9972;SDS011;5027;53.560;10.062;2023-08-12T00:08:02;5.97;;;3.47;;
9972;SDS011;5027;53.560;10.062;2023-08-12T00:10:29;4.00;;;3.60;;
9972;SDS011;5027;53.560;10.062;2023-08-12T00:12:56;4.90;;;3.90;;
9972;SDS011;5027;53.560;10.062;2023-08-12T00:15:23;5.83;;;3.83;;
9972;SDS011;5027;53.560;10.062;2023-08-12T00:17:49;10.07;;;5.33;;
9972;SDS011;5027;53.560;10.062;2023-08-12T00:20:16;5.00;;;3.60;;
9972;SDS011;5027;53.560;10.062;2023-08-12T00:22:43;5.93;;;2.93;;
9972;SDS011;5027;53.560;10.062;2023-08-12T00:25:10;8.50;;;3.23;;
9972;SDS011;5027;53.560;10.062;2023-08-12T00:27:37;5.87;;;3.23;;
9972;SDS011;5027;53.560;10.062;2023-08-12T00:30:04;5.97;;;3.60;;
9972;SDS011;5027;53.560;10.062;2023-08-12T00:32:31;8.60;;;4.40;;
9972;SDS011;5027;53.560;10.062;2023-08-12T00:34:58;4.80;;;3.50;;
9972;SDS011;5027;53.560;10.062;2023-08-12T00:37:25;6.63;;;3.40;;
9972;SDS011;5027;53.560;10.062;2023-08-12T00:39:51;4.83;;;3.30;;
9972;SDS011;5027;53.560;10.062;2023-08-12T00:42:18;4.87;;;2.90;;
9972;SDS011;5027;53.560;10.062;2023-08-12T00:44:45;5.70;;;3.60;;
9972;SDS011;5027;53.560;10.062;2023-08-12T00:47:11;6.10;;;3.30;;
9972;SDS011;5027;53.560;10.062;2023-08-12T00:49:38;4.73;;;3.77;;
9972;SDS011;5027;53.560;10.062;2023-08-12T00:52:07;5.13;;;3.10;;
9972;SDS011;5027;53.560;10.062;2023-08-12T00:54:33;8.30;;;3.13;;
9972;SDS011;5027;53.560;10.062;2023-08-12T00:57:00;5.80;;;3.10;;
9972;SDS011;5027;53.560;10.062;2023-08-12T00:59:27;4.23;;;3.53;;
9972;SDS011;5027;53.560;10.062;2023-08-12T01:01:54;4.83;;;3.07;;
9972;SDS011;5027;53.560;10.062;2023-08-12T01:04:21;3.67;;;3.00;;
9972;SDS011;5027;53.560;10.062;2023-08-12T01:06:49;8.37;;;3.70;;
9972;SDS011;5027;53.560;10.062;2023-08-12T01:09:16;5.13;;;3.00;;
9972;SDS011;5027;53.560;10.062;2023-08-12T01:11:49;9.43;;;3.20;;
9972;SDS011;5027;53.560;10.062;2023-08-12T01:17:06;4.93;;;3.17;;
9972;SDS011;5027;53.560;10.062;2023-08-12T01:19:38;5.73;;;2.87;;
9972;SDS011;5027;53.560;10.062;2023-08-12T01:22:08;6.27;;;3.47;;
9972;SDS011;5027;53.560;10.062;2023-08-12T01:24:40;5.53;;;2.93;;
9972;SDS011;5027;53.560;10.062;2023-08-12T01:27:09;5.90;;;3.00;;
9972;SDS011;5027;53.560;10.062;2023-08-12T01:29:39;5.00;;;3.20;;
9972;SDS011;5027;53.560;10.062;2023-08-12T01:32:14;6.23;;;3.87;;
9972;SDS011;5027;53.560;10.062;2023-08-12T01:34:59;6.17;;;3.00;;
9972;SDS011;5027;53.560;10.062;2023-08-12T01:37:31;3.73;;;2.73;;
9972;SDS011;5027;53.560;10.062;2023-08-12T01:40:02;7.60;;;4.87;;
9972;SDS011;5027;53.560;10.062;2023-08-12T01:42:32;9.23;;;3.40;;
9972;SDS011;5027;53.560;10.062;2023-08-12T01:44:59;5.47;;;3.10;;
9972;SDS011;5027;53.560;10.062;2023-08-12T01:47:28;6.83;;;2.97;;
9972;SDS011;5027;53.560;10.062;2023-08-12T01:49:55;5.90;;;4.43;;
9972;SDS011;5027;53.560;10.062;2023-08-12T01:52:22;5.27;;;3.17;;
9972;SDS011;5027;53.560;10.062;2023-08-12T01:54:49;3.30;;;2.67;;
9972;SDS011;5027;53.560;10.062;2023-08-12T01:57:16;5.47;;;3.13;;
9972;SDS011;5027;53.560;10.062;2023-08-12T01:59:43;5.90;;;2.93;;
9972;SDS011;5027;53.560;10.062;2023-08-12T02:02:10;7.20;;;3.27;;
9972;SDS011;5027;53.560;10.062;2023-08-12T02:04:37;3.97;;;2.97;;
9972;SDS011;5027;53.560;10.062;2023-08-12T02:07:05;6.03;;;3.27;;
9972;SDS011;5027;53.560;10.062;2023-08-12T02:09:32;4.47;;;3.20;;
9972;SDS011;5027;53.560;10.062;2023-08-12T02:11:59;3.03;;;2.70;;
9972;SDS011;5027;53.560;10.062;2023-08-12T02:14:25;5.10;;;3.27;;
9972;SDS011;5027;53.560;10.062;2023-08-12T02:16:52;5.40;;;3.03;;
9972;SDS011;5027;53.560;10.062;2023-08-12T02:19:20;5.27;;;2.93;;
9972;SDS011;5027;53.560;10.062;2023-08-12T02:21:47;7.13;;;2.90;;
9972;SDS011;5027;53.560;10.062;2023-08-12T02:24:13;4.30;;;2.60;;
9972;SDS011;5027;53.560;10.062;2023-08-12T02:26:40;6.37;;;3.20;;
9972;SDS011;5027;53.560;10.062;2023-08-12T02:29:06;3.67;;;3.30;;
9972;SDS011;5027;53.560;10.062;2023-08-12T02:31:33;4.23;;;3.17;;
9972;SDS011;5027;53.560;10.062;2023-08-12T02:34:00;5.70;;;3.50;;
9972;SDS011;5027;53.560;10.062;2023-08-12T02:36:27;4.70;;;3.20;;
9972;SDS011;5027;53.560;10.062;2023-08-12T02:38:54;6.30;;;3.70;;
9972;SDS011;5027;53.560;10.062;2023-08-12T02:41:21;4.03;;;2.97;;
9972;SDS011;5027;53.560;10.062;2023-08-12T02:43:47;4.57;;;3.27;;
9972;SDS011;5027;53.560;10.062;2023-08-12T02:46:14;6.90;;;3.10;;
9972;SDS011;5027;53.560;10.062;2023-08-12T02:48:42;3.57;;;3.27;;
9972;SDS011;5027;53.560;10.062;2023-08-12T02:51:09;3.33;;;2.67;;
9972;SDS011;5027;53.560;10.062;2023-08-12T02:53:36;3.10;;;2.80;;
9972;SDS011;5027;53.560;10.062;2023-08-12T02:56:03;3.17;;;2.97;;
9972;SDS011;5027;53.560;10.062;2023-08-12T02:58:29;4.00;;;3.13;;
9972;SDS011;5027;53.560;10.062;2023-08-12T03:00:56;5.33;;;3.20;;
9972;SDS011;5027;53.560;10.062;2023-08-12T03:03:23;5.60;;;3.23;;
9972;SDS011;5027;53.560;10.062;2023-08-12T03:05:50;9.63;;;3.20;;
9972;SDS011;5027;53.560;10.062;2023-08-12T03:08:17;3.70;;;2.63;;
9972;SDS011;5027;53.560;10.062;2023-08-12T03:10:46;7.60;;;2.77;;
9972;SDS011;5027;53.560;10.062;2023-08-12T03:13:14;5.83;;;3.30;;
9972;SDS011;5027;53.560;10.062;2023-08-12T03:15:41;4.03;;;3.10;;
9972;SDS011;5027;53.560;10.062;2023-08-12T03:18:09;7.77;;;3.63;;
9972;SDS011;5027;53.560;10.062;2023-08-12T03:20:37;3.63;;;3.00;;
9972;SDS011;5027;53.560;10.062;2023-08-12T03:23:04;4.83;;;3.30;;
9972;SDS011;5027;53.560;10.062;2023-08-12T03:25:31;6.13;;;3.43;;
9972;SDS011;5027;53.560;10.062;2023-08-12T03:27:58;7.13;;;3.43;;
9972;SDS011;5027;53.560;10.062;2023-08-12T03:30:26;7.00;;;3.17;;
9972;SDS011;5027;53.560;10.062;2023-08-12T03:32:53;3.70;;;3.30;;
9972;SDS011;5027;53.560;10.062;2023-08-12T03:35:21;5.47;;;2.90;;
9972;SDS011;5027;53.560;10.062;2023-08-12T03:37:47;12.90;;;3.60;;
9972;SDS011;5027;53.560;10.062;2023-08-12T03:40:14;6.87;;;3.40;;
9972;SDS011;5027;53.560;10.062;2023-08-12T03:42:41;6.07;;;3.20;;
9972;SDS011;5027;53.560;10.062;2023-08-12T03:45:08;8.37;;;3.63;;
9972;SDS011;5027;53.560;10.062;2023-08-12T03:47:35;5.67;;;3.50;;
9972;SDS011;5027;53.560;10.062;2023-08-12T03:50:02;6.13;;;3.20;;
9972;SDS011;5027;53.560;10.062;2023-08-12T03:52:31;6.23;;;3.73;;
9972;SDS011;5027;53.560;10.062;2023-08-12T03:54:58;5.50;;;3.37;;
9972;SDS011;5027;53.560;10.062;2023-08-12T03:57:25;5.60;;;3.17;;
9972;SDS011;5027;53.560;10.062;2023-08-12T03:59:51;4.30;;;2.97;;
9972;SDS011;5027;53.560;10.062;2023-08-12T04:02:18;5.20;;;3.00;;
9972;SDS011;5027;53.560;10.062;2023-08-12T04:04:45;6.40;;;3.53;;
9972;SDS011;5027;53.560;10.062;2023-08-12T04:07:12;8.10;;;2.87;;
9972;SDS011;5027;53.560;10.062;2023-08-12T04:09:40;6.13;;;3.00;;
9972;SDS011;5027;53.560;10.062;2023-08-12T04:12:07;6.43;;;3.07;;
9972;SDS011;5027;53.560;10.062;2023-08-12T04:14:33;4.57;;;2.90;;
9972;SDS011;5027;53.560;10.062;2023-08-12T04:17:00;5.33;;;3.00;;
9972;SDS011;5027;53.560;10.062;2023-08-12T04:19:27;3.73;;;3.17;;
9972;SDS011;5027;53.560;10.062;2023-08-12T04:21:53;5.30;;;2.60;;
9972;SDS011;5027;53.560;10.062;2023-08-12T04:24:20;5.43;;;3.00;;
9972;SDS011;5027;53.560;10.062;2023-08-12T04:26:47;5.53;;;3.13;;
9972;SDS011;5027;53.560;10.062;2023-08-12T04:29:15;9.70;;;3.60;;
9972;SDS011;5027;53.560;10.062;2023-08-12T04:31:41;6.00;;;3.03;;
9972;SDS011;5027;53.560;10.062;2023-08-12T04:34:08;5.90;;;3.00;;
9972;SDS011;5027;53.560;10.062;2023-08-12T04:36:35;6.20;;;3.00;;
9972;SDS011;5027;53.560;10.062;2023-08-12T04:39:03;4.77;;;3.40;;
9972;SDS011;5027;53.560;10.062;2023-08-12T04:41:31;3.93;;;3.13;;
9972;SDS011;5027;53.560;10.062;2023-08-12T04:44:00;3.47;;;2.73;;
9972;SDS011;5027;53.560;10.062;2023-08-12T04:46:29;5.00;;;3.07;;
9972;SDS011;5027;53.560;10.062;2023-08-12T04:48:56;5.47;;;3.00;;
9972;SDS011;5027;53.560;10.062;2023-08-12T04:51:23;4.73;;;3.57;;
9972;SDS011;5027;53.560;10.062;2023-08-12T04:53:49;4.37;;;3.47;;
9972;SDS011;5027;53.560;10.062;2023-08-12T04:56:16;6.07;;;3.53;;
9972;SDS011;5027;53.560;10.062;2023-08-12T04:58:44;7.73;;;3.27;;
9972;SDS011;5027;53.560;10.062;2023-08-12T05:01:11;3.73;;;3.17;;
9972;SDS011;5027;53.560;10.062;2023-08-12T05:03:37;4.47;;;2.90;;
9972;SDS011;5027;53.560;10.062;2023-08-12T05:06:04;4.13;;;3.40;;
9972;SDS011;5027;53.560;10.062;2023-08-12T05:08:32;7.60;;;3.67;;
9972;SDS011;5027;53.560;10.062;2023-08-12T05:10:59;4.20;;;3.43;;
9972;SDS011;5027;53.560;10.062;2023-08-12T05:13:25;4.50;;;2.87;;
9972;SDS011;5027;53.560;10.062;2023-08-12T05:15:54;4.53;;;3.37;;
9972;SDS011;5027;53.560;10.062;2023-08-12T05:18:21;6.93;;;3.50;;
9972;SDS011;5027;53.560;10.062;2023-08-12T05:20:51;5.90;;;3.00;;
9972;SDS011;5027;53.560;10.062;2023-08-12T05:23:20;7.50;;;3.53;;
9972;SDS011;5027;53.560;10.062;2023-08-12T05:25:47;7.23;;;3.50;;
9972;SDS011;5027;53.560;10.062;2023-08-12T05:28:13;5.20;;;3.53;;
9972;SDS011;5027;53.560;10.062;2023-08-12T05:30:40;8.60;;;3.80;;
9972;SDS011;5027;53.560;10.062;2023-08-12T05:33:07;6.07;;;3.17;;
9972;SDS011;5027;53.560;10.062;2023-08-12T05:35:34;3.67;;;3.03;;
9972;SDS011;5027;53.560;10.062;2023-08-12T05:38:01;8.53;;;3.37;;
9972;SDS011;5027;53.560;10.062;2023-08-12T05:40:28;6.03;;;3.30;;
9972;SDS011;5027;53.560;10.062;2023-08-12T05:42:55;5.70;;;3.80;;
9972;SDS011;5027;53.560;10.062;2023-08-12T05:45:22;6.93;;;4.20;;
9972;SDS011;5027;53.560;10.062;2023-08-12T05:47:48;6.27;;;3.50;;
9972;SDS011;5027;53.560;10.062;2023-08-12T05:50:15;4.90;;;3.30;;
9972;SDS011;5027;53.560;10.062;2023-08-12T05:52:43;7.97;;;3.50;;
9972;SDS011;5027;53.560;10.062;2023-08-12T05:55:10;10.03;;;4.20;;
9972;SDS011;5027;53.560;10.062;2023-08-12T05:57:36;6.77;;;4.67;;
9972;SDS011;5027;53.560;10.062;2023-08-12T06:00:03;4.80;;;4.00;;
9972;SDS011;5027;53.560;10.062;2023-08-12T06:02:36;5.80;;;4.87;;
9972;SDS011;5027;53.560;10.062;2023-08-12T06:05:03;8.43;;;4.60;;
9972;SDS011;5027;53.560;10.062;2023-08-12T06:07:30;8.17;;;6.40;;
9972;SDS011;5027;53.560;10.062;2023-08-12T06:09:57;7.50;;;4.90;;
9972;SDS011;5027;53.560;10.062;2023-08-12T06:12:24;9.23;;;5.30;;
9972;SDS011;5027;53.560;10.062;2023-08-12T06:14:50;10.90;;;4.47;;
9972;SDS011;5027;53.560;10.062;2023-08-12T06:17:17;8.63;;;4.50;;
9972;SDS011;5027;53.560;10.062;2023-08-12T06:19:44;11.63;;;4.70;;
9972;SDS011;5027;53.560;10.062;2023-08-12T06:22:10;4.93;;;4.43;;
9972;SDS011;5027;53.560;10.062;2023-08-12T06:24:38;7.73;;;5.20;;
9972;SDS011;5027;53.560;10.062;2023-08-12T06:27:05;11.93;;;5.30;;
9972;SDS011;5027;53.560;10.062;2023-08-12T06:29:31;7.70;;;4.63;;
9972;SDS011;5027;53.560;10.062;2023-08-12T06:31:58;8.43;;;5.60;;
9972;SDS011;5027;53.560;10.062;2023-08-12T06:34:25;14.67;;;6.10;;
9972;SDS011;5027;53.560;10.062;2023-08-12T06:36:51;10.37;;;5.63;;
9972;SDS011;5027;53.560;10.062;2023-08-12T06:39:18;10.97;;;6.10;;
9972;SDS011;5027;53.560;10.062;2023-08-12T06:41:45;13.17;;;6.37;;
9972;SDS011;5027;53.560;10.062;2023-08-12T06:44:11;12.90;;;6.10;;
9972;SDS011;5027;53.560;10.062;2023-08-12T06:46:38;10.20;;;5.67;;
9972;SDS011;5027;53.560;10.062;2023-08-12T06:49:05;7.50;;;5.40;;
9972;SDS011;5027;53.560;10.062;2023-08-12T06:51:31;10.30;;;5.83;;
9972;SDS011;5027;53.560;10.062;2023-08-12T06:53:58;12.50;;;5.80;;
9972;SDS011;5027;53.560;10.062;2023-08-12T06:56:25;9.63;;;6.07;;
9972;SDS011;5027;53.560;10.062;2023-08-12T06:58:51;10.70;;;7.03;;
9972;SDS011;5027;53.560;10.062;2023-08-12T07:01:18;10.83;;;6.20;;
9972;SDS011;5027;53.560;10.062;2023-08-12T07:03:45;9.27;;;5.93;;
9972;SDS011;5027;53.560;10.062;2023-08-12T07:06:11;7.03;;;6.23;;
9972;SDS011;5027;53.560;10.062;2023-08-12T07:08:38;9.07;;;6.63;;
9972;SDS011;5027;53.560;10.062;2023-08-12T07:11:05;10.90;;;6.73;;
9972;SDS011;5027;53.560;10.062;2023-08-12T07:13:32;8.30;;;6.77;;
9972;SDS011;5027;53.560;10.062;2023-08-12T07:16:00;12.63;;;7.63;;
9972;SDS011;5027;53.560;10.062;2023-08-12T07:18:27;12.37;;;7.17;;
9972;SDS011;5027;53.560;10.062;2023-08-12T07:20:55;9.40;;;6.40;;
9972;SDS011;5027;53.560;10.062;2023-08-12T07:23:21;12.97;;;7.87;;
9972;SDS011;5027;53.560;10.062;2023-08-12T07:25:48;8.97;;;7.10;;
9972;SDS011;5027;53.560;10.062;2023-08-12T07:28:15;11.47;;;7.53;;
9972;SDS011;5027;53.560;10.062;2023-08-12T07:30:42;11.73;;;8.00;;
9972;SDS011;5027;53.560;10.062;2023-08-12T07:33:09;8.70;;;7.30;;
9972;SDS011;5027;53.560;10.062;2023-08-12T07:35:35;10.30;;;8.30;;
9972;SDS011;5027;53.560;10.062;2023-08-12T07:38:02;11.00;;;8.00;;
9972;SDS011;5027;53.560;10.062;2023-08-12T07:40:29;9.30;;;8.27;;
9972;SDS011;5027;53.560;10.062;2023-08-12T07:42:55;13.07;;;8.80;;
9972;SDS011;5027;53.560;10.062;2023-08-12T07:45:22;10.90;;;8.50;;
9972;SDS011;5027;53.560;10.062;2023-08-12T07:47:49;15.13;;;9.10;;
9972;SDS011;5027;53.560;10.062;2023-08-12T07:50:16;11.43;;;8.53;;
9972;SDS011;5027;53.560;10.062;2023-08-12T07:52:43;10.63;;;8.23;;
9972;SDS011;5027;53.560;10.062;2023-08-12T07:55:10;8.60;;;7.73;;
9972;SDS011;5027;53.560;10.062;2023-08-12T07:57:38;14.97;;;8.23;;
9972;SDS011;5027;53.560;10.062;2023-08-12T08:00:05;10.23;;;8.00;;
9972;SDS011;5027;53.560;10.062;2023-08-12T08:02:35;9.47;;;8.43;;
9972;SDS011;5027;53.560;10.062;2023-08-12T08:05:01;11.13;;;9.17;;
9972;SDS011;5027;53.560;10.062;2023-08-12T08:07:29;10.73;;;9.37;;
9972;SDS011;5027;53.560;10.062;2023-08-12T08:09:56;9.97;;;8.97;;
9972;SDS011;5027;53.560;10.062;2023-08-12T08:12:23;9.40;;;8.60;;
9972;SDS011;5027;53.560;10.062;2023-08-12T08:14:50;9.73;;;8.63;;
9972;SDS011;5027;53.560;10.062;2023-08-12T08:17:16;11.07;;;8.97;;
9972;SDS011;5027;53.560;10.062;2023-08-12T08:19:43;10.30;;;9.33;;
9972;SDS011;5027;53.560;10.062;2023-08-12T08:22:10;10.60;;;9.20;;
9972;SDS011;5027;53.560;10.062;2023-08-12T08:24:37;10.40;;;9.23;;
9972;SDS011;5027;53.560;10.062;2023-08-12T08:27:04;12.57;;;10.47;;
9972;SDS011;5027;53.560;10.062;2023-08-12T08:29:31;11.20;;;10.23;;
9972;SDS011;5027;53.560;10.062;2023-08-12T08:31:57;12.07;;;9.87;;
9972;SDS011;5027;53.560;10.062;2023-08-12T08:34:24;12.93;;;10.47;;
9972;SDS011;5027;53.560;10.062;2023-08-12T08:36:51;12.00;;;9.40;;
9972;SDS011;5027;53.560;10.062;2023-08-12T08:39:18;12.40;;;9.90;;
9972;SDS011;5027;53.560;10.062;2023-08-12T08:41:44;12.60;;;10.07;;
9972;SDS011;5027;53.560;10.062;2023-08-12T08:44:14;12.17;;;9.13;;
9972;SDS011;5027;53.560;10.062;2023-08-12T08:46:42;10.13;;;9.17;;
9972;SDS011;5027;53.560;10.062;2023-08-12T08:49:10;12.20;;;10.70;;
9972;SDS011;5027;53.560;10.062;2023-08-12T08:51:39;12.10;;;9.93;;
9972;SDS011;5027;53.560;10.062;2023-08-12T08:54:07;12.47;;;10.00;;
9972;SDS011;5027;53.560;10.062;2023-08-12T08:56:34;13.07;;;11.00;;
9972;SDS011;5027;53.560;10.062;2023-08-12T08:59:14;13.37;;;10.30;;
9972;SDS011;5027;53.560;10.062;2023-08-12T09:01:40;11.37;;;10.17;;
9972;SDS011;5027;53.560;10.062;2023-08-12T09:04:10;11.20;;;9.70;;
9972;SDS011;5027;53.560;10.062;2023-08-12T09:06:38;13.57;;;10.53;;
9972;SDS011;5027;53.560;10.062;2023-08-12T09:09:07;13.67;;;10.13;;
9972;SDS011;5027;53.560;10.062;2023-08-12T09:11:38;16.57;;;11.30;;
9972;SDS011;5027;53.560;10.062;2023-08-12T09:14:05;14.40;;;10.70;;
9972;SDS011;5027;53.560;10.062;2023-08-12T09:16:33;13.37;;;10.53;;
9972;SDS011;5027;53.560;10.062;2023-08-12T09:19:00;13.93;;;11.60;;
9972;SDS011;5027;53.560;10.062;2023-08-12T09:21:27;11.53;;;10.43;;
9972;SDS011;5027;53.560;10.062;2023-08-12T09:23:53;12.33;;;10.70;;
9972;SDS011;5027;53.560;10.062;2023-08-12T09:26:21;18.07;;;11.77;;
9972;SDS011;5027;53.560;10.062;2023-08-12T09:28:48;13.70;;;10.93;;
9972;SDS011;5027;53.560;10.062;2023-08-12T09:31:28;12.40;;;9.93;;
9972;SDS011;5027;53.560;10.062;2023-08-12T09:34:00;12.37;;;10.40;;
9972;SDS011;5027;53.560;10.062;2023-08-12T09:36:30;9.60;;;7.57;;
9972;SDS011;5027;53.560;10.062;2023-08-12T09:38:57;14.27;;;10.40;;
9972;SDS011;5027;53.560;10.062;2023-08-12T09:41:27;11.50;;;9.60;;
9972;SDS011;5027;53.560;10.062;2023-08-12T09:44:01;14.07;;;11.27;;
9972;SDS011;5027;53.560;10.062;2023-08-12T09:46:28;10.37;;;9.17;;
9972;SDS011;5027;53.560;10.062;2023-08-12T09:48:54;13.87;;;10.33;;
9972;SDS011;5027;53.560;10.062;2023-08-12T09:51:21;13.80;;;10.70;;
9972;SDS011;5027;53.560;10.062;2023-08-12T09:53:48;13.43;;;10.47;;
9972;SDS011;5027;53.560;10.062;2023-08-12T09:56:17;10.50;;;8.90;;
9972;SDS011;5027;53.560;10.062;2023-08-12T09:58:47;13.47;;;10.70;;
9972;SDS011;5027;53.560;10.062;2023-08-12T10:01:18;13.90;;;11.13;;
9972;SDS011;5027;53.560;10.062;2023-08-12T10:03:49;12.07;;;10.27;;
9972;SDS011;5027;53.560;10.062;2023-08-12T10:06:17;13.33;;;10.67;;
9972;SDS011;5027;53.560;10.062;2023-08-12T10:08:46;14.40;;;10.03;;
9972;SDS011;5027;53.560;10.062;2023-08-12T10:11:13;12.33;;;10.10;;
9972;SDS011;5027;53.560;10.062;2023-08-12T10:13:41;12.73;;;11.20;;
9972;SDS011;5027;53.560;10.062;2023-08-12T10:16:08;14.57;;;10.60;;
9972;SDS011;5027;53.560;10.062;2023-08-12T10:18:36;14.47;;;11.43;;
9972;SDS011;5027;53.560;10.062;2023-08-12T10:21:05;11.83;;;9.97;;
9972;SDS011;5027;53.560;10.062;2023-08-12T10:23:34;11.73;;;10.53;;
9972;SDS011;5027;53.560;10.062;2023-08-12T10:26:02;12.93;;;10.20;;
9972;SDS011;5027;53.560;10.062;2023-08-12T10:28:32;10.07;;;9.10;;
9972;SDS011;5027;53.560;10.062;2023-08-12T10:31:04;9.90;;;8.90;;
9972;SDS011;5027;53.560;10.062;2023-08-12T10:33:35;11.43;;;9.73;;
9972;SDS011;5027;53.560;10.062;2023-08-12T10:36:04;12.23;;;10.73;;
9972;SDS011;5027;53.560;10.062;2023-08-12T10:38:31;10.70;;;9.33;;
9972;SDS011;5027;53.560;10.062;2023-08-12T10:41:15;11.80;;;10.57;;
9972;SDS011;5027;53.560;10.062;2023-08-12T10:43:49;13.30;;;10.90;;
9972;SDS011;5027;53.560;10.062;2023-08-12T10:46:28;13.47;;;10.07;;
9972;SDS011;5027;53.560;10.062;2023-08-12T10:49:07;13.40;;;9.73;;
9972;SDS011;5027;53.560;10.062;2023-08-12T10:51:54;12.67;;;10.23;;
9972;SDS011;5027;53.560;10.062;2023-08-12T10:59:47;13.67;;;10.63;;
9972;SDS011;5027;53.560;10.062;2023-08-12T11:05:07;15.23;;;11.43;;
9972;SDS011;5027;53.560;10.062;2023-08-12T11:07:42;12.40;;;11.10;;
9972;SDS011;5027;53.560;10.062;2023-08-12T11:10:12;8.50;;;7.67;;
9972;SDS011;5027;53.560;10.062;2023-08-12T11:13:00;10.67;;;8.33;;
9972;SDS011;5027;53.560;10.062;2023-08-12T11:15:30;9.97;;;8.90;;
9972;SDS011;5027;53.560;10.062;2023-08-12T11:18:08;10.93;;;5.90;;
9972;SDS011;5027;53.560;10.062;2023-08-12T11:20:36;8.03;;;6.37;;
9972;SDS011;5027;53.560;10.062;2023-08-12T11:23:04;10.30;;;7.57;;
9972;SDS011;5027;53.560;10.062;2023-08-12T11:25:32;13.20;;;8.77;;
9972;SDS011;5027;53.560;10.062;2023-08-12T11:28:00;7.13;;;6.37;;
9972;SDS011;5027;53.560;10.062;2023-08-12T11:30:27;6.87;;;6.17;;
9972;SDS011;5027;53.560;10.062;2023-08-12T11:33:00;6.80;;;6.20;;
9972;SDS011;5027;53.560;10.062;2023-08-12T11:35:28;7.50;;;5.53;;
9972;SDS011;5027;53.560;10.062;2023-08-12T11:37:56;6.47;;;5.73;;
9972;SDS011;5027;53.560;10.062;2023-08-12T11:40:24;7.37;;;6.37;;
9972;SDS011;5027;53.560;10.062;2023-08-12T11:42:52;9.87;;;6.57;;
9972;SDS011;5027;53.560;10.062;2023-08-12T11:45:23;5.97;;;4.83;;
9972;SDS011;5027;53.560;10.062;2023-08-12T11:47:51;5.73;;;4.57;;
9972;SDS011;5027;53.560;10.062;2023-08-12T11:50:20;5.80;;;5.20;;
9972;SDS011;5027;53.560;10.062;2023-08-12T11:52:49;7.33;;;5.37;;
9972;SDS011;5027;53.560;10.062;2023-08-12T11:55:16;6.07;;;5.33;;
9972;SDS011;5027;53.560;10.062;2023-08-12T11:57:43;6.60;;;6.00;;
9972;SDS011;5027;53.560;10.062;2023-08-12T12:00:11;7.03;;;6.37;;
9972;SDS011;5027;53.560;10.062;2023-08-12T12:02:52;8.07;;;6.60;;
9972;SDS011;5027;53.560;10.062;2023-08-12T12:05:21;7.63;;;6.20;;
9972;SDS011;5027;53.560;10.062;2023-08-12T12:07:50;8.77;;;5.97;;
9972;SDS011;5027;53.560;10.062;2023-08-12T12:10:26;7.53;;;6.83;;
9972;SDS011;5027;53.560;10.062;2023-08-12T12:13:00;7.57;;;6.83;;
9972;SDS011;5027;53.560;10.062;2023-08-12T12:15:28;6.73;;;6.13;;
9972;SDS011;5027;53.560;10.062;2023-08-12T12:17:54;8.90;;;6.77;;
9972;SDS011;5027;53.560;10.062;2023-08-12T12:20:21;8.60;;;7.07;;
9972;SDS011;5027;53.560;10.062;2023-08-12T12:22:48;8.50;;;7.60;;
9972;SDS011;5027;53.560;10.062;2023-08-12T12:25:15;11.10;;;8.33;;
9972;SDS011;5027;53.560;10.062;2023-08-12T12:27:45;9.47;;;8.13;;
9972;SDS011;5027;53.560;10.062;2023-08-12T12:30:13;10.20;;;7.67;;
9972;SDS011;5027;53.560;10.062;2023-08-12T12:32:41;8.47;;;7.63;;
9972;SDS011;5027;53.560;10.062;2023-08-12T12:35:08;10.77;;;9.77;;
9972;SDS011;5027;53.560;10.062;2023-08-12T12:37:35;12.27;;;9.13;;
9972;SDS011;5027;53.560;10.062;2023-08-12T12:40:03;11.67;;;8.80;;
9972;SDS011;5027;53.560;10.062;2023-08-12T12:42:31;11.57;;;9.17;;
9972;SDS011;5027;53.560;10.062;2023-08-12T12:44:58;10.00;;;8.97;;
9972;SDS011;5027;53.560;10.062;2023-08-12T12:47:24;22.60;;;20.43;;
9972;SDS011;5027;53.560;10.062;2023-08-12T12:49:51;9.03;;;8.23;;
9972;SDS011;5027;53.560;10.062;2023-08-12T12:52:18;12.77;;;8.00;;
9972;SDS011;5027;53.560;10.062;2023-08-12T12:54:45;9.83;;;8.83;;
9972;SDS011;5027;53.560;10.062;2023-08-12T12:57:11;9.30;;;8.40;;
9972;SDS011;5027;53.560;10.062;2023-08-12T12:59:38;10.67;;;9.20;;
9972;SDS011;5027;53.560;10.062;2023-08-12T13:02:05;9.53;;;8.63;;
9972;SDS011;5027;53.560;10.062;2023-08-12T13:04:31;9.87;;;8.87;;
9972;SDS011;5027;53.560;10.062;2023-08-12T13:06:58;10.17;;;9.13;;
9972;SDS011;5027;53.560;10.062;2023-08-12T13:09:25;10.70;;;9.67;;
9972;SDS011;5027;53.560;10.062;2023-08-12T13:11:51;12.83;;;10.50;;
9972;SDS011;5027;53.560;10.062;2023-08-12T13:14:18;10.97;;;9.77;;
9972;SDS011;5027;53.560;10.062;2023-08-12T13:16:47;11.40;;;10.30;;
9972;SDS011;5027;53.560;10.062;2023-08-12T13:19:14;10.77;;;9.73;;
9972;SDS011;5027;53.560;10.062;2023-08-12T13:21:41;11.40;;;10.00;;
9972;SDS011;5027;53.560;10.062;2023-08-12T13:24:07;11.27;;;10.27;;
9972;SDS011;5027;53.560;10.062;2023-08-12T13:26:34;11.13;;;10.20;;
9972;SDS011;5027;53.560;10.062;2023-08-12T13:29:01;13.73;;;11.27;;
9972;SDS011;5027;53.560;10.062;2023-08-12T13:31:27;12.30;;;10.27;;
9972;SDS011;5027;53.560;10.062;2023-08-12T13:33:54;14.23;;;11.50;;
9972;SDS011;5027;53.560;10.062;2023-08-12T13:36:21;10.93;;;9.90;;
9972;SDS011;5027;53.560;10.062;2023-08-12T13:38:48;14.70;;;9.43;;
9972;SDS011;5027;53.560;10.062;2023-08-12T13:41:18;11.97;;;10.77;;
9972;SDS011;5027;53.560;10.062;2023-08-12T13:43:44;11.13;;;10.00;;
9972;SDS011;5027;53.560;10.062;2023-08-12T13:46:11;11.00;;;9.90;;
9972;SDS011;5027;53.560;10.062;2023-08-12T13:48:39;9.13;;;8.23;;
9972;SDS011;5027;53.560;10.062;2023-08-12T13:51:05;10.43;;;8.33;;
9972;SDS011;5027;53.560;10.062;2023-08-12T13:53:32;5.73;;;5.23;;
9972;SDS011;5027;53.560;10.062;2023-08-12T13:55:59;6.17;;;5.10;;
9972;SDS011;5027;53.560;10.062;2023-08-12T13:58:25;8.33;;;6.47;;
9972;SDS011;5027;53.560;10.062;2023-08-12T14:00:52;7.23;;;6.13;;
9972;SDS011;5027;53.560;10.062;2023-08-12T14:03:19;7.10;;;6.10;;
9972;SDS011;5027;53.560;10.062;2023-08-12T14:05:45;6.50;;;5.83;;
9972;SDS011;5027;53.560;10.062;2023-08-12T14:08:12;7.07;;;6.37;;
9972;SDS011;5027;53.560;10.062;2023-08-12T14:10:39;7.90;;;7.13;;
9972;SDS011;5027;53.560;10.062;2023-08-12T14:13:06;7.57;;;6.83;;
9972;SDS011;5027;53.560;10.062;2023-08-12T14:15:33;8.17;;;6.80;;
9972;SDS011;5027;53.560;10.062;2023-08-12T14:18:01;9.63;;;7.30;;
9972;SDS011;5027;53.560;10.062;2023-08-12T14:20:27;11.50;;;10.20;;
9972;SDS011;5027;53.560;10.062;2023-08-12T14:22:54;8.93;;;8.03;;
9972;SDS011;5027;53.560;10.062;2023-08-12T14:25:21;7.97;;;7.13;;
9972;SDS011;5027;53.560;10.062;2023-08-12T14:27:48;9.57;;;8.67;;
9972;SDS011;5027;53.560;10.062;2023-08-12T14:30:17;9.13;;;8.07;;
9972;SDS011;5027;53.560;10.062;2023-08-12T14:32:45;8.83;;;8.00;;
9972;SDS011;5027;53.560;10.062;2023-08-12T14:35:14;10.73;;;9.63;;
9972;SDS011;5027;53.560;10.062;2023-08-12T14:37:41;10.23;;;9.33;;
9972;SDS011;5027;53.560;10.062;2023-08-12T14:40:08;14.00;;;9.93;;
9972;SDS011;5027;53.560;10.062;2023-08-12T14:42:35;14.00;;;10.03;;
9972;SDS011;5027;53.560;10.062;2023-08-12T14:45:03;12.40;;;10.70;;
9972;SDS011;5027;53.560;10.062;2023-08-12T14:47:30;11.37;;;10.37;;
9972;SDS011;5027;53.560;10.062;2023-08-12T14:49:57;13.47;;;12.17;;
9972;SDS011;5027;53.560;10.062;2023-08-12T14:52:23;13.23;;;11.87;;
9972;SDS011;5027;53.560;10.062;2023-08-12T14:54:50;13.60;;;12.20;;
9972;SDS011;5027;53.560;10.062;2023-08-12T14:57:17;13.60;;;12.20;;
9972;SDS011;5027;53.560;10.062;2023-08-12T14:59:44;13.20;;;11.90;;
9972;SDS011;5027;53.560;10.062;2023-08-12T15:02:12;13.50;;;12.10;;
9972;SDS011;5027;53.560;10.062;2023-08-12T15:04:39;13.50;;;12.20;;
9972;SDS011;5027;53.560;10.062;2023-08-12T15:07:06;13.80;;;12.50;;